sensor_id;sensor_type;location;lat;lon;timestamp;temperature;humidity
54485;DHT22;45006;56.958;24.166;2023-09-19T00:00:47;23.90;86.60
54485;DHT22;45006;56.958;24.166;2023-09-19T00:03:16;23.90;86.70
54485;DHT22;45006;56.958;24.166;2023-09-19T00:05:43;23.90;86.90
54485;DHT22;45006;56.958;24.166;2023-09-19T00:08:12;23.90;87.00
54485;DHT22;45006;56.958;24.166;2023-09-19T00:10:42;24.00;87.00
54485;DHT22;45006;56.958;24.166;2023-09-19T00:13:10;23.90;87.00
54485;DHT22;45006;56.958;24.166;2023-09-19T00:15:47;23.90;87.30
54485;DHT22;45006;56.958;24.166;2023-09-19T00:18:18;23.90;87.20
54485;DHT22;45006;56.958;24.166;2023-09-19T00:20:48;23.90;87.20
54485;DHT22;45006;56.958;24.166;2023-09-19T00:23:16;23.90;87.40
54485;DHT22;45006;56.958;24.166;2023-09-19T00:25:43;23.90;87.10
54485;DHT22;45006;56.958;24.166;2023-09-19T00:28:12;23.90;87.10
54485;DHT22;45006;56.958;24.166;2023-09-19T00:30:43;23.90;86.90
54485;DHT22;45006;56.958;24.166;2023-09-19T00:33:11;23.90;86.40
54485;DHT22;45006;56.958;24.166;2023-09-19T00:35:53;23.90;86.00
54485;DHT22;45006;56.958;24.166;2023-09-19T00:38:21;23.90;86.40
54485;DHT22;45006;56.958;24.166;2023-09-19T00:40:51;23.90;86.70
54485;DHT22;45006;56.958;24.166;2023-09-19T00:43:18;23.90;86.40
54485;DHT22;45006;56.958;24.166;2023-09-19T00:45:47;23.90;87.00
54485;DHT22;45006;56.958;24.166;2023-09-19T00:48:16;23.90;86.60
54485;DHT22;45006;56.958;24.166;2023-09-19T00:50:46;23.90;86.20
54485;DHT22;45006;56.958;24.166;2023-09-19T00:53:18;23.90;87.00
54485;DHT22;45006;56.958;24.166;2023-09-19T00:55:47;23.90;87.20
54485;DHT22;45006;56.958;24.166;2023-09-19T00:58:17;23.90;86.40
54485;DHT22;45006;56.958;24.166;2023-09-19T01:00:45;23.90;86.70
54485;DHT22;45006;56.958;24.166;2023-09-19T01:03:13;23.90;87.00
54485;DHT22;45006;56.958;24.166;2023-09-19T01:05:40;23.90;86.90
54485;DHT22;45006;56.958;24.166;2023-09-19T01:08:07;23.90;86.70
54485;DHT22;45006;56.958;24.166;2023-09-19T01:10:36;23.90;87.60
54485;DHT22;45006;56.958;24.166;2023-09-19T01:13:16;23.90;87.70
54485;DHT22;45006;56.958;24.166;2023-09-19T01:15:55;23.90;87.80
54485;DHT22;45006;56.958;24.166;2023-09-19T01:18:50;23.90;87.50
54485;DHT22;45006;56.958;24.166;2023-09-19T01:21:45;23.90;87.80
54485;DHT22;45006;56.958;24.166;2023-09-19T01:24:53;23.90;88.00
54485;DHT22;45006;56.958;24.166;2023-09-19T01:27:36;23.90;87.60
54485;DHT22;45006;56.958;24.166;2023-09-19T01:30:10;23.90;87.50
54485;DHT22;45006;56.958;24.166;2023-09-19T01:32:40;23.90;87.30
54485;DHT22;45006;56.958;24.166;2023-09-19T01:35:09;23.90;87.90
54485;DHT22;45006;56.958;24.166;2023-09-19T01:37:40;23.90;87.60
54485;DHT22;45006;56.958;24.166;2023-09-19T01:40:12;23.90;88.00
54485;DHT22;45006;56.958;24.166;2023-09-19T01:42:45;23.90;87.70
54485;DHT22;45006;56.958;24.166;2023-09-19T01:47:55;23.90;87.80
54485;DHT22;45006;56.958;24.166;2023-09-19T01:50:43;23.90;87.90
54485;DHT22;45006;56.958;24.166;2023-09-19T01:53:19;23.90;87.80
54485;DHT22;45006;56.958;24.166;2023-09-19T01:55:49;23.90;88.00
54485;DHT22;45006;56.958;24.166;2023-09-19T01:58:37;23.90;88.20
54485;DHT22;45006;56.958;24.166;2023-09-19T02:01:08;23.90;88.20
54485;DHT22;45006;56.958;24.166;2023-09-19T02:03:38;23.90;88.20
54485;DHT22;45006;56.958;24.166;2023-09-19T02:06:07;23.90;88.20
54485;DHT22;45006;56.958;24.166;2023-09-19T02:08:38;23.90;88.20
54485;DHT22;45006;56.958;24.166;2023-09-19T02:11:06;23.90;88.40
54485;DHT22;45006;56.958;24.166;2023-09-19T02:13:33;23.90;88.40
54485;DHT22;45006;56.958;24.166;2023-09-19T02:16:00;23.90;88.50
54485;DHT22;45006;56.958;24.166;2023-09-19T02:18:27;23.90;88.70
54485;DHT22;45006;56.958;24.166;2023-09-19T02:20:55;23.90;88.80
54485;DHT22;45006;56.958;24.166;2023-09-19T02:23:23;23.90;89.00
54485;DHT22;45006;56.958;24.166;2023-09-19T02:25:54;23.90;89.10
54485;DHT22;45006;56.958;24.166;2023-09-19T02:28:24;23.90;89.30
54485;DHT22;45006;56.958;24.166;2023-09-19T02:30:56;23.90;89.30
54485;DHT22;45006;56.958;24.166;2023-09-19T02:33:24;23.90;89.30
54485;DHT22;45006;56.958;24.166;2023-09-19T02:35:58;23.90;89.10
54485;DHT22;45006;56.958;24.166;2023-09-19T02:38:26;23.90;89.10
54485;DHT22;45006;56.958;24.166;2023-09-19T02:40:53;23.90;89.10
54485;DHT22;45006;56.958;24.166;2023-09-19T02:43:22;23.90;89.00
54485;DHT22;45006;56.958;24.166;2023-09-19T02:45:50;23.90;89.00
54485;DHT22;45006;56.958;24.166;2023-09-19T02:48:17;23.90;89.00
54485;DHT22;45006;56.958;24.166;2023-09-19T02:50:45;23.90;88.60
54485;DHT22;45006;56.958;24.166;2023-09-19T02:53:13;23.90;89.00
54485;DHT22;45006;56.958;24.166;2023-09-19T02:55:40;23.90;89.00
54485;DHT22;45006;56.958;24.166;2023-09-19T02:58:07;23.90;88.80
54485;DHT22;45006;56.958;24.166;2023-09-19T03:00:34;23.80;88.80
54485;DHT22;45006;56.958;24.166;2023-09-19T03:03:02;23.90;89.20
54485;DHT22;45006;56.958;24.166;2023-09-19T03:05:29;23.90;89.20
54485;DHT22;45006;56.958;24.166;2023-09-19T03:08:00;23.90;89.20
54485;DHT22;45006;56.958;24.166;2023-09-19T03:10:28;23.90;89.30
54485;DHT22;45006;56.958;24.166;2023-09-19T03:12:57;23.90;89.40
54485;DHT22;45006;56.958;24.166;2023-09-19T03:15:31;23.90;89.40
54485;DHT22;45006;56.958;24.166;2023-09-19T03:17:58;23.90;89.50
54485;DHT22;45006;56.958;24.166;2023-09-19T03:20:26;23.90;89.60
54485;DHT22;45006;56.958;24.166;2023-09-19T03:22:54;23.90;89.50
54485;DHT22;45006;56.958;24.166;2023-09-19T03:25:21;23.90;89.60
54485;DHT22;45006;56.958;24.166;2023-09-19T03:27:50;23.90;89.60
54485;DHT22;45006;56.958;24.166;2023-09-19T03:30:17;23.90;89.70
54485;DHT22;45006;56.958;24.166;2023-09-19T03:32:47;23.80;89.60
54485;DHT22;45006;56.958;24.166;2023-09-19T03:35:18;23.80;89.50
54485;DHT22;45006;56.958;24.166;2023-09-19T03:37:45;23.90;89.50
54485;DHT22;45006;56.958;24.166;2023-09-19T03:40:12;23.90;89.50
54485;DHT22;45006;56.958;24.166;2023-09-19T03:42:40;23.80;89.40
54485;DHT22;45006;56.958;24.166;2023-09-19T03:45:09;23.90;89.50
54485;DHT22;45006;56.958;24.166;2023-09-19T03:47:40;23.80;89.50
54485;DHT22;45006;56.958;24.166;2023-09-19T03:50:08;23.90;89.50
54485;DHT22;45006;56.958;24.166;2023-09-19T03:52:38;23.90;89.60
54485;DHT22;45006;56.958;24.166;2023-09-19T03:55:05;23.90;89.60
54485;DHT22;45006;56.958;24.166;2023-09-19T03:57:32;23.90;89.70
54485;DHT22;45006;56.958;24.166;2023-09-19T03:59:59;23.90;89.70
54485;DHT22;45006;56.958;24.166;2023-09-19T04:02:26;23.90;89.60
54485;DHT22;45006;56.958;24.166;2023-09-19T04:04:59;23.90;89.60
54485;DHT22;45006;56.958;24.166;2023-09-19T04:07:26;23.90;89.50
54485;DHT22;45006;56.958;24.166;2023-09-19T04:09:55;23.90;89.60
54485;DHT22;45006;56.958;24.166;2023-09-19T04:12:22;23.90;89.60
54485;DHT22;45006;56.958;24.166;2023-09-19T04:14:49;23.90;89.50
54485;DHT22;45006;56.958;24.166;2023-09-19T04:17:17;23.90;89.50
54485;DHT22;45006;56.958;24.166;2023-09-19T04:19:45;23.90;89.40
54485;DHT22;45006;56.958;24.166;2023-09-19T04:22:12;23.90;89.30
54485;DHT22;45006;56.958;24.166;2023-09-19T04:24:40;23.90;89.30
54485;DHT22;45006;56.958;24.166;2023-09-19T04:27:07;23.90;89.30
54485;DHT22;45006;56.958;24.166;2023-09-19T04:29:34;23.90;89.40
54485;DHT22;45006;56.958;24.166;2023-09-19T04:32:01;23.90;89.50
54485;DHT22;45006;56.958;24.166;2023-09-19T04:34:33;23.90;89.50
54485;DHT22;45006;56.958;24.166;2023-09-19T04:37:01;23.90;89.60
54485;DHT22;45006;56.958;24.166;2023-09-19T04:39:28;23.90;89.60
54485;DHT22;45006;56.958;24.166;2023-09-19T04:41:55;23.90;89.70
54485;DHT22;45006;56.958;24.166;2023-09-19T04:44:23;23.90;89.70
54485;DHT22;45006;56.958;24.166;2023-09-19T04:46:50;23.90;89.70
54485;DHT22;45006;56.958;24.166;2023-09-19T04:49:17;23.90;89.80
54485;DHT22;45006;56.958;24.166;2023-09-19T04:51:45;23.90;89.80
54485;DHT22;45006;56.958;24.166;2023-09-19T04:54:13;23.90;89.90
54485;DHT22;45006;56.958;24.166;2023-09-19T04:56:41;23.90;89.80
54485;DHT22;45006;56.958;24.166;2023-09-19T04:59:08;23.90;89.80
54485;DHT22;45006;56.958;24.166;2023-09-19T05:01:37;23.90;89.80
54485;DHT22;45006;56.958;24.166;2023-09-19T05:04:05;23.90;89.80
54485;DHT22;45006;56.958;24.166;2023-09-19T05:06:32;23.90;89.90
54485;DHT22;45006;56.958;24.166;2023-09-19T05:09:00;24.00;89.90
54485;DHT22;45006;56.958;24.166;2023-09-19T05:11:27;24.00;89.70
54485;DHT22;45006;56.958;24.166;2023-09-19T05:13:57;24.00;88.80
54485;DHT22;45006;56.958;24.166;2023-09-19T05:16:29;24.10;86.60
54485;DHT22;45006;56.958;24.166;2023-09-19T05:18:57;24.20;84.80
54485;DHT22;45006;56.958;24.166;2023-09-19T05:21:24;24.30;83.40
54485;DHT22;45006;56.958;24.166;2023-09-19T05:23:52;24.30;81.70
54485;DHT22;45006;56.958;24.166;2023-09-19T05:26:19;24.40;81.10
54485;DHT22;45006;56.958;24.166;2023-09-19T05:28:46;24.50;80.40
54485;DHT22;45006;56.958;24.166;2023-09-19T05:31:14;24.50;78.80
54485;DHT22;45006;56.958;24.166;2023-09-19T05:33:43;24.60;77.60
54485;DHT22;45006;56.958;24.166;2023-09-19T05:36:09;24.60;77.10
54485;DHT22;45006;56.958;24.166;2023-09-19T05:38:38;24.60;76.50
54485;DHT22;45006;56.958;24.166;2023-09-19T05:41:08;24.70;76.20
54485;DHT22;45006;56.958;24.166;2023-09-19T05:43:36;24.70;75.00
54485;DHT22;45006;56.958;24.166;2023-09-19T05:46:04;24.70;74.40
54485;DHT22;45006;56.958;24.166;2023-09-19T05:48:31;24.80;73.30
54485;DHT22;45006;56.958;24.166;2023-09-19T05:50:59;24.90;72.90
54485;DHT22;45006;56.958;24.166;2023-09-19T05:53:28;24.90;72.00
54485;DHT22;45006;56.958;24.166;2023-09-19T05:55:56;25.00;71.40
54485;DHT22;45006;56.958;24.166;2023-09-19T05:58:24;25.00;70.40
54485;DHT22;45006;56.958;24.166;2023-09-19T06:00:51;25.00;70.40
54485;DHT22;45006;56.958;24.166;2023-09-19T06:03:19;25.10;69.90
54485;DHT22;45006;56.958;24.166;2023-09-19T06:05:47;25.10;70.10
54485;DHT22;45006;56.958;24.166;2023-09-19T06:08:16;25.20;69.50
54485;DHT22;45006;56.958;24.166;2023-09-19T06:10:43;25.20;68.70
54485;DHT22;45006;56.958;24.166;2023-09-19T06:13:10;25.20;68.80
54485;DHT22;45006;56.958;24.166;2023-09-19T06:15:37;25.20;68.90
54485;DHT22;45006;56.958;24.166;2023-09-19T06:18:11;25.20;69.10
54485;DHT22;45006;56.958;24.166;2023-09-19T06:20:42;25.10;68.90
54485;DHT22;45006;56.958;24.166;2023-09-19T06:23:11;25.00;70.00
54485;DHT22;45006;56.958;24.166;2023-09-19T06:25:38;25.00;71.80
54485;DHT22;45006;56.958;24.166;2023-09-19T06:28:07;24.90;72.50
54485;DHT22;45006;56.958;24.166;2023-09-19T06:30:36;25.00;73.10
54485;DHT22;45006;56.958;24.166;2023-09-19T06:33:04;25.00;73.80
54485;DHT22;45006;56.958;24.166;2023-09-19T06:35:34;24.90;74.10
54485;DHT22;45006;56.958;24.166;2023-09-19T06:38:03;24.90;74.70
54485;DHT22;45006;56.958;24.166;2023-09-19T06:40:30;24.90;75.10
54485;DHT22;45006;56.958;24.166;2023-09-19T06:42:58;24.90;75.50
54485;DHT22;45006;56.958;24.166;2023-09-19T06:45:25;24.90;75.90
54485;DHT22;45006;56.958;24.166;2023-09-19T06:47:54;24.90;76.30
54485;DHT22;45006;56.958;24.166;2023-09-19T06:50:26;24.90;76.40
54485;DHT22;45006;56.958;24.166;2023-09-19T06:52:55;24.90;76.70
54485;DHT22;45006;56.958;24.166;2023-09-19T06:55:25;24.90;77.10
54485;DHT22;45006;56.958;24.166;2023-09-19T06:57:55;24.90;77.30
54485;DHT22;45006;56.958;24.166;2023-09-19T07:00:25;24.90;77.60
54485;DHT22;45006;56.958;24.166;2023-09-19T07:02:59;24.90;77.90
54485;DHT22;45006;56.958;24.166;2023-09-19T07:05:35;24.90;78.00
54485;DHT22;45006;56.958;24.166;2023-09-19T07:08:07;24.90;78.30
54485;DHT22;45006;56.958;24.166;2023-09-19T07:10:36;24.90;78.60
54485;DHT22;45006;56.958;24.166;2023-09-19T07:13:04;24.90;78.80
54485;DHT22;45006;56.958;24.166;2023-09-19T07:15:36;24.90;79.00
54485;DHT22;45006;56.958;24.166;2023-09-19T07:18:06;24.90;79.10
54485;DHT22;45006;56.958;24.166;2023-09-19T07:20:36;24.90;79.30
54485;DHT22;45006;56.958;24.166;2023-09-19T07:23:03;24.90;79.60
54485;DHT22;45006;56.958;24.166;2023-09-19T07:25:30;24.90;79.70
54485;DHT22;45006;56.958;24.166;2023-09-19T07:27:58;24.80;79.80
54485;DHT22;45006;56.958;24.166;2023-09-19T07:30:30;24.90;80.10
54485;DHT22;45006;56.958;24.166;2023-09-19T07:32:57;24.80;80.40
54485;DHT22;45006;56.958;24.166;2023-09-19T07:35:24;24.80;80.60
54485;DHT22;45006;56.958;24.166;2023-09-19T07:37:55;24.90;80.90
54485;DHT22;45006;56.958;24.166;2023-09-19T07:40:26;24.80;81.00
54485;DHT22;45006;56.958;24.166;2023-09-19T07:42:56;24.90;81.20
54485;DHT22;45006;56.958;24.166;2023-09-19T07:45:23;24.80;81.20
54485;DHT22;45006;56.958;24.166;2023-09-19T07:47:52;24.80;81.40
54485;DHT22;45006;56.958;24.166;2023-09-19T07:50:19;24.80;81.60
54485;DHT22;45006;56.958;24.166;2023-09-19T07:52:48;24.80;81.60
54485;DHT22;45006;56.958;24.166;2023-09-19T07:55:17;24.80;81.70
54485;DHT22;45006;56.958;24.166;2023-09-19T07:57:46;24.80;81.20
54485;DHT22;45006;56.958;24.166;2023-09-19T08:00:14;24.80;80.90
54485;DHT22;45006;56.958;24.166;2023-09-19T08:02:41;24.70;80.90
54485;DHT22;45006;56.958;24.166;2023-09-19T08:05:10;24.70;81.10
54485;DHT22;45006;56.958;24.166;2023-09-19T08:07:39;24.60;82.10
54485;DHT22;45006;56.958;24.166;2023-09-19T08:10:08;24.60;82.50
54485;DHT22;45006;56.958;24.166;2023-09-19T08:12:40;24.60;82.60
54485;DHT22;45006;56.958;24.166;2023-09-19T08:15:14;24.50;82.70
54485;DHT22;45006;56.958;24.166;2023-09-19T08:17:42;24.50;82.70
54485;DHT22;45006;56.958;24.166;2023-09-19T08:20:10;24.50;82.70
54485;DHT22;45006;56.958;24.166;2023-09-19T08:22:53;24.60;81.20
54485;DHT22;45006;56.958;24.166;2023-09-19T08:25:24;24.80;78.60
54485;DHT22;45006;56.958;24.166;2023-09-19T08:27:56;24.90;77.10
54485;DHT22;45006;56.958;24.166;2023-09-19T08:30:29;24.90;76.40
54485;DHT22;45006;56.958;24.166;2023-09-19T08:32:58;25.00;75.70
54485;DHT22;45006;56.958;24.166;2023-09-19T08:35:31;25.10;75.40
54485;DHT22;45006;56.958;24.166;2023-09-19T08:38:03;25.10;74.90
54485;DHT22;45006;56.958;24.166;2023-09-19T08:40:31;25.10;74.70
54485;DHT22;45006;56.958;24.166;2023-09-19T08:43:00;25.10;74.20
54485;DHT22;45006;56.958;24.166;2023-09-19T08:45:27;25.20;73.80
54485;DHT22;45006;56.958;24.166;2023-09-19T08:50:30;25.20;73.10
54485;DHT22;45006;56.958;24.166;2023-09-19T08:53:01;25.20;73.00
54485;DHT22;45006;56.958;24.166;2023-09-19T08:55:33;25.20;72.60
54485;DHT22;45006;56.958;24.166;2023-09-19T08:58:03;25.20;72.10
54485;DHT22;45006;56.958;24.166;2023-09-19T09:00:31;25.20;72.00
54485;DHT22;45006;56.958;24.166;2023-09-19T09:02:59;25.30;71.60
54485;DHT22;45006;56.958;24.166;2023-09-19T09:05:27;25.30;71.50
54485;DHT22;45006;56.958;24.166;2023-09-19T09:07:55;25.30;71.40
54485;DHT22;45006;56.958;24.166;2023-09-19T09:10:23;25.30;71.40
54485;DHT22;45006;56.958;24.166;2023-09-19T09:12:52;25.30;71.30
54485;DHT22;45006;56.958;24.166;2023-09-19T09:15:23;25.40;71.20
54485;DHT22;45006;56.958;24.166;2023-09-19T09:17:51;25.40;71.00
54485;DHT22;45006;56.958;24.166;2023-09-19T09:20:20;25.40;70.70
54485;DHT22;45006;56.958;24.166;2023-09-19T09:22:54;25.40;70.50
54485;DHT22;45006;56.958;24.166;2023-09-19T09:25:22;25.40;70.20
54485;DHT22;45006;56.958;24.166;2023-09-19T09:28:02;25.40;70.10
54485;DHT22;45006;56.958;24.166;2023-09-19T09:30:36;25.40;69.60
54485;DHT22;45006;56.958;24.166;2023-09-19T09:33:14;25.40;69.70
54485;DHT22;45006;56.958;24.166;2023-09-19T09:35:56;25.40;69.40
54485;DHT22;45006;56.958;24.166;2023-09-19T09:38:27;25.50;69.30
54485;DHT22;45006;56.958;24.166;2023-09-19T09:40:56;25.50;69.30
54485;DHT22;45006;56.958;24.166;2023-09-19T09:43:49;25.50;69.00
54485;DHT22;45006;56.958;24.166;2023-09-19T09:46:18;25.50;68.90
54485;DHT22;45006;56.958;24.166;2023-09-19T09:54:26;25.50;68.20
54485;DHT22;45006;56.958;24.166;2023-09-19T09:57:09;25.50;68.30
54485;DHT22;45006;56.958;24.166;2023-09-19T09:59:58;25.50;68.00
54485;DHT22;45006;56.958;24.166;2023-09-19T10:02:28;25.50;68.00
54485;DHT22;45006;56.958;24.166;2023-09-19T10:04:57;25.50;67.70
54485;DHT22;45006;56.958;24.166;2023-09-19T10:07:37;25.50;67.50
54485;DHT22;45006;56.958;24.166;2023-09-19T10:10:32;25.50;67.50
54485;DHT22;45006;56.958;24.166;2023-09-19T10:13:11;25.50;67.30
54485;DHT22;45006;56.958;24.166;2023-09-19T10:15:47;25.50;67.10
54485;DHT22;45006;56.958;24.166;2023-09-19T10:18:21;25.60;67.20
54485;DHT22;45006;56.958;24.166;2023-09-19T10:20:48;25.60;67.10
54485;DHT22;45006;56.958;24.166;2023-09-19T10:23:20;25.60;67.00
54485;DHT22;45006;56.958;24.166;2023-09-19T10:25:51;25.60;66.90
54485;DHT22;45006;56.958;24.166;2023-09-19T10:28:20;25.60;66.60
54485;DHT22;45006;56.958;24.166;2023-09-19T10:30:53;25.60;66.70
54485;DHT22;45006;56.958;24.166;2023-09-19T10:33:24;25.60;66.60
54485;DHT22;45006;56.958;24.166;2023-09-19T10:36:00;25.60;66.80
54485;DHT22;45006;56.958;24.166;2023-09-19T10:38:28;25.60;66.90
54485;DHT22;45006;56.958;24.166;2023-09-19T10:41:03;25.60;67.00
54485;DHT22;45006;56.958;24.166;2023-09-19T10:43:31;25.60;67.10
54485;DHT22;45006;56.958;24.166;2023-09-19T10:46:12;25.60;66.60
54485;DHT22;45006;56.958;24.166;2023-09-19T10:48:40;25.50;67.20
54485;DHT22;45006;56.958;24.166;2023-09-19T10:51:14;25.40;67.80
54485;DHT22;45006;56.958;24.166;2023-09-19T10:56:35;25.30;69.50
54485;DHT22;45006;56.958;24.166;2023-09-19T10:59:13;25.20;70.20
54485;DHT22;45006;56.958;24.166;2023-09-19T11:04:34;25.10;73.30
54485;DHT22;45006;56.958;24.166;2023-09-19T11:07:12;25.10;74.20
54485;DHT22;45006;56.958;24.166;2023-09-19T11:09:48;25.00;74.60
54485;DHT22;45006;56.958;24.166;2023-09-19T11:14:53;24.90;75.00
54485;DHT22;45006;56.958;24.166;2023-09-19T11:30:45;24.90;75.90
54485;DHT22;45006;56.958;24.166;2023-09-19T11:33:25;24.90;75.90
54485;DHT22;45006;56.958;24.166;2023-09-19T11:43:52;24.90;76.40
54485;DHT22;45006;56.958;24.166;2023-09-19T11:46:27;24.90;75.60
54485;DHT22;45006;56.958;24.166;2023-09-19T11:48:55;24.90;76.80
54485;DHT22;45006;56.958;24.166;2023-09-19T11:51:44;24.90;76.70
54485;DHT22;45006;56.958;24.166;2023-09-19T11:54:13;24.90;75.90
54485;DHT22;45006;56.958;24.166;2023-09-19T11:56:45;24.90;76.20
54485;DHT22;45006;56.958;24.166;2023-09-19T11:59:26;24.90;76.60
54485;DHT22;45006;56.958;24.166;2023-09-19T12:02:06;24.90;76.90
54485;DHT22;45006;56.958;24.166;2023-09-19T12:04:44;24.90;77.10
54485;DHT22;45006;56.958;24.166;2023-09-19T12:07:17;24.80;77.30
54485;DHT22;45006;56.958;24.166;2023-09-19T12:09:50;24.80;77.50
54485;DHT22;45006;56.958;24.166;2023-09-19T12:12:23;24.80;77.80
54485;DHT22;45006;56.958;24.166;2023-09-19T12:14:54;24.80;78.10
54485;DHT22;45006;56.958;24.166;2023-09-19T12:17:22;24.80;78.40
54485;DHT22;45006;56.958;24.166;2023-09-19T12:19:52;24.80;78.40
54485;DHT22;45006;56.958;24.166;2023-09-19T12:22:19;24.80;78.70
54485;DHT22;45006;56.958;24.166;2023-09-19T12:24:49;24.80;79.00
54485;DHT22;45006;56.958;24.166;2023-09-19T12:27:17;24.80;79.20
54485;DHT22;45006;56.958;24.166;2023-09-19T12:29:48;24.80;79.30
54485;DHT22;45006;56.958;24.166;2023-09-19T12:32:16;24.80;79.60
54485;DHT22;45006;56.958;24.166;2023-09-19T12:34:51;24.80;79.90
54485;DHT22;45006;56.958;24.166;2023-09-19T12:37:20;24.80;80.20
54485;DHT22;45006;56.958;24.166;2023-09-19T12:40:08;24.80;80.30
54485;DHT22;45006;56.958;24.166;2023-09-19T12:42:50;24.80;80.60
54485;DHT22;45006;56.958;24.166;2023-09-19T12:45:17;24.80;80.70
54485;DHT22;45006;56.958;24.166;2023-09-19T12:53:40;25.00;76.90
54485;DHT22;45006;56.958;24.166;2023-09-19T12:56:12;25.10;75.20
54485;DHT22;45006;56.958;24.166;2023-09-19T13:01:22;25.20;73.80
54485;DHT22;45006;56.958;24.166;2023-09-19T13:04:14;25.30;73.20
54485;DHT22;45006;56.958;24.166;2023-09-19T13:06:47;25.30;72.90
54485;DHT22;45006;56.958;24.166;2023-09-19T13:09:20;25.30;72.20
54485;DHT22;45006;56.958;24.166;2023-09-19T13:11:48;25.40;71.40
54485;DHT22;45006;56.958;24.166;2023-09-19T13:14:21;25.30;71.60
54485;DHT22;45006;56.958;24.166;2023-09-19T13:19:47;25.40;71.70
54485;DHT22;45006;56.958;24.166;2023-09-19T13:25:17;25.40;71.20
54485;DHT22;45006;56.958;24.166;2023-09-19T13:27:53;25.40;71.00
54485;DHT22;45006;56.958;24.166;2023-09-19T13:30:28;25.50;70.80
54485;DHT22;45006;56.958;24.166;2023-09-19T13:33:05;25.50;70.30
54485;DHT22;45006;56.958;24.166;2023-09-19T13:35:38;25.50;70.20
54485;DHT22;45006;56.958;24.166;2023-09-19T13:38:07;25.50;70.00
54485;DHT22;45006;56.958;24.166;2023-09-19T13:40:39;25.50;69.90
54485;DHT22;45006;56.958;24.166;2023-09-19T13:43:09;25.50;69.60
54485;DHT22;45006;56.958;24.166;2023-09-19T13:45:36;25.50;69.40
54485;DHT22;45006;56.958;24.166;2023-09-19T13:48:04;25.50;69.40
54485;DHT22;45006;56.958;24.166;2023-09-19T13:50:31;25.50;69.20
54485;DHT22;45006;56.958;24.166;2023-09-19T13:52:58;25.50;69.00
54485;DHT22;45006;56.958;24.166;2023-09-19T13:55:27;25.50;68.70
54485;DHT22;45006;56.958;24.166;2023-09-19T13:57:56;25.50;68.70
54485;DHT22;45006;56.958;24.166;2023-09-19T14:00:24;25.50;68.50
54485;DHT22;45006;56.958;24.166;2023-09-19T14:02:51;25.50;68.20
54485;DHT22;45006;56.958;24.166;2023-09-19T14:05:20;25.60;68.10
54485;DHT22;45006;56.958;24.166;2023-09-19T14:07:49;25.50;68.00
54485;DHT22;45006;56.958;24.166;2023-09-19T14:10:16;25.50;67.70
54485;DHT22;45006;56.958;24.166;2023-09-19T14:12:45;25.50;67.90
54485;DHT22;45006;56.958;24.166;2023-09-19T14:15:13;25.50;67.80
54485;DHT22;45006;56.958;24.166;2023-09-19T14:17:40;25.50;68.00
54485;DHT22;45006;56.958;24.166;2023-09-19T14:20:13;25.50;67.90
54485;DHT22;45006;56.958;24.166;2023-09-19T14:22:42;25.50;68.10
54485;DHT22;45006;56.958;24.166;2023-09-19T14:25:09;25.50;68.10
54485;DHT22;45006;56.958;24.166;2023-09-19T14:27:36;25.50;67.90
54485;DHT22;45006;56.958;24.166;2023-09-19T14:30:06;25.50;68.20
54485;DHT22;45006;56.958;24.166;2023-09-19T14:32:33;25.50;68.40
54485;DHT22;45006;56.958;24.166;2023-09-19T14:35:02;25.60;68.30
54485;DHT22;45006;56.958;24.166;2023-09-19T14:37:29;25.60;68.30
54485;DHT22;45006;56.958;24.166;2023-09-19T14:39:57;25.60;68.10
54485;DHT22;45006;56.958;24.166;2023-09-19T14:42:24;25.60;68.10
54485;DHT22;45006;56.958;24.166;2023-09-19T14:44:51;25.60;67.90
54485;DHT22;45006;56.958;24.166;2023-09-19T14:47:18;25.60;67.80
54485;DHT22;45006;56.958;24.166;2023-09-19T14:49:45;25.60;67.80
54485;DHT22;45006;56.958;24.166;2023-09-19T14:52:12;25.60;67.60
54485;DHT22;45006;56.958;24.166;2023-09-19T14:54:44;25.60;67.50
54485;DHT22;45006;56.958;24.166;2023-09-19T14:57:11;25.60;67.40
54485;DHT22;45006;56.958;24.166;2023-09-19T14:59:41;25.60;67.40
54485;DHT22;45006;56.958;24.166;2023-09-19T15:02:08;25.60;67.30
54485;DHT22;45006;56.958;24.166;2023-09-19T15:04:37;25.60;67.20
54485;DHT22;45006;56.958;24.166;2023-09-19T15:07:08;25.60;67.00
54485;DHT22;45006;56.958;24.166;2023-09-19T15:09:35;25.60;67.00
54485;DHT22;45006;56.958;24.166;2023-09-19T15:12:04;25.60;67.10
54485;DHT22;45006;56.958;24.166;2023-09-19T15:14:31;25.60;67.10
54485;DHT22;45006;56.958;24.166;2023-09-19T15:16:58;25.60;67.20
54485;DHT22;45006;56.958;24.166;2023-09-19T15:19:25;25.60;66.90
54485;DHT22;45006;56.958;24.166;2023-09-19T15:21:52;25.60;66.90
54485;DHT22;45006;56.958;24.166;2023-09-19T15:24:20;25.60;67.00
54485;DHT22;45006;56.958;24.166;2023-09-19T15:26:47;25.60;67.10
54485;DHT22;45006;56.958;24.166;2023-09-19T15:29:15;25.50;67.70
54485;DHT22;45006;56.958;24.166;2023-09-19T15:31:43;25.60;67.00
54485;DHT22;45006;56.958;24.166;2023-09-19T15:34:10;25.60;67.10
54485;DHT22;45006;56.958;24.166;2023-09-19T15:36:41;25.50;67.20
54485;DHT22;45006;56.958;24.166;2023-09-19T15:39:08;25.60;67.00
54485;DHT22;45006;56.958;24.166;2023-09-19T15:41:40;25.60;66.70
54485;DHT22;45006;56.958;24.166;2023-09-19T15:44:15;25.60;66.70
54485;DHT22;45006;56.958;24.166;2023-09-19T15:46:43;25.60;67.00
54485;DHT22;45006;56.958;24.166;2023-09-19T15:49:11;25.60;66.90
54485;DHT22;45006;56.958;24.166;2023-09-19T15:51:40;25.60;66.40
54485;DHT22;45006;56.958;24.166;2023-09-19T15:54:09;25.60;66.60
54485;DHT22;45006;56.958;24.166;2023-09-19T15:56:36;25.60;66.70
54485;DHT22;45006;56.958;24.166;2023-09-19T15:59:08;25.50;66.70
54485;DHT22;45006;56.958;24.166;2023-09-19T16:01:37;25.50;66.80
54485;DHT22;45006;56.958;24.166;2023-09-19T16:04:05;25.50;67.00
54485;DHT22;45006;56.958;24.166;2023-09-19T16:06:34;25.50;66.80
54485;DHT22;45006;56.958;24.166;2023-09-19T16:09:01;25.60;66.50
54485;DHT22;45006;56.958;24.166;2023-09-19T16:11:34;25.60;66.40
54485;DHT22;45006;56.958;24.166;2023-09-19T16:14:05;25.60;66.70
54485;DHT22;45006;56.958;24.166;2023-09-19T16:16:36;25.60;66.50
54485;DHT22;45006;56.958;24.166;2023-09-19T16:19:05;25.50;66.50
54485;DHT22;45006;56.958;24.166;2023-09-19T16:21:43;25.50;66.20
54485;DHT22;45006;56.958;24.166;2023-09-19T16:24:12;25.60;66.40
54485;DHT22;45006;56.958;24.166;2023-09-19T16:26:40;25.60;66.80
54485;DHT22;45006;56.958;24.166;2023-09-19T16:29:07;25.60;66.30